Vesta, Virginia
Current Conditions -  °F | °C
As of 11:55 PM on Wednesday 22 Oct 2014 (Local Time) from KMTV Reporting Station
Clear Clear  
Wind Chill: 41°   Ceiling: Unl
Heat Index: 46°   Visibility: 10mi
Dew Point: 41°   Wind: 10mph
Humidity: 81%   Direction: 330°NNW
Pressure: 30.08"   Gusts: NA
Location:  36.72°N, 80.36°W
Report Text: KMTV 230355Z AUTO 33009KT 10SM CLR 08/05 A3008 RMK AO2 T00800050
Loading
Personal Weather Stations






























Interactive Weather Map
Tropical Storm Tracking
New forecast layout! Learn more

10-Day Weather Forecast

Advertisements
Track Severe Weather on mobile